^^
Station Historical Data
Daily Summary for September 25, 2017 Units:  Metric    English   Both
« Previous Day
Next Day »
Daily Weekly Monthly Yearly Custom
  High: Low: Average:
Temperature: 21.3 °C 10.7 °C 15.1 °C
Dew Point: 6.6 °C 1.2 °C 3.3 °C
Humidity: 74% 29% 47%
Wind Speed: 30.6km/h 1.4km/h 15.4km/h
Wind Gust: 43.5km/h - -
Wind- - SSW
Pressure: 1016.8 hPa 1008.4 hPa -
Precipitation: 0 mm    
Historical Graphs
 
 
Tabular Data for September 25, 2017
Time Temperature Dew Point Pressure Wind Wind Speed Wind Gust Humidity Rainfall Rate (Hourly) solar Conditions
00:03 16.8 °C 3.5 °C 1010 hPa SSW 13 km/h 16.1 km/h 41% 0 mm 0.0 W/m2
00:08 16.8 °C 3.5 °C 1010 hPa SSW 13 km/h 16.1 km/h 41% 0 mm 0.0 W/m2
00:13 16.7 °C 3.4 °C 1010 hPa SSW 11.1 km/h 14.5 km/h 41% 0 mm 0.0 W/m2
00:18 16.7 °C 3 °C 1010 hPa SSW 16.3 km/h 16.3 km/h 40% 0 mm 0.0 W/m2
00:24 16.6 °C 2.9 °C 1010 hPa SSW 13 km/h 14.5 km/h 40% 0 mm 0.0 W/m2
00:29 16.6 °C 2.6 °C 1010 hPa SSW 11.1 km/h 12.9 km/h 39% 0 mm 0.0 W/m2
00:34 16.4 °C 2.4 °C 1010 hPa SSW 13 km/h 13 km/h 39% 0 mm 0.0 W/m2
00:39 16.4 °C 2.4 °C 1010 hPa SSW 11.1 km/h 12.9 km/h 39% 0 mm 0.0 W/m2
00:49 16.2 °C 2.2 °C 1009.7 hPa SSW 7.9 km/h 11.3 km/h 39% 0 mm 0.0 W/m2
00:54 16.1 °C 2.1 °C 1009.7 hPa SSW 4.7 km/h 6.4 km/h 39% 0 mm 0.0 W/m2
00:59 15.9 °C 2.3 °C 1009.7 hPa SSW 9.7 km/h 9.7 km/h 40% 0 mm 0.0 W/m2
01:04 15.9 °C 2.3 °C 1009.7 hPa SSW 6.4 km/h 11.3 km/h 40% 0 mm 0.0 W/m2
01:19 15.8 °C 2.2 °C 1009.4 hPa SSW 11.1 km/h 14.5 km/h 40% 0 mm 0.0 W/m2
01:29 15.7 °C 2.1 °C 1009.4 hPa SSW 11.1 km/h 12.9 km/h 40% 0 mm 0.0 W/m2
01:34 15.5 °C 1.6 °C 1009.4 hPa SSW 6.4 km/h 11.3 km/h 39% 0 mm 0.0 W/m2
01:44 15.6 °C 1.7 °C 1009 hPa SSW 9.7 km/h 14.5 km/h 39% 0 mm 0.0 W/m2
01:54 15.5 °C 1.2 °C 1009.4 hPa SSW 13 km/h 16.1 km/h 38% 0 mm 0.0 W/m2
01:59 15.4 °C 1.5 °C 1009 hPa SSW 11.1 km/h 12.9 km/h 39% 0 mm 0.0 W/m2
02:10 15.5 °C 1.6 °C 1009.4 hPa SSW 9.7 km/h 12.9 km/h 39% 0 mm 0.0 W/m2
02:15 15.5 °C 1.6 °C 1009 hPa SSW 6.4 km/h 12.9 km/h 39% 0 mm 0.0 W/m2
02:24 15.5 °C 2 °C 1009 hPa SSW 7.9 km/h 11.3 km/h 40% 0 mm 0.0 W/m2
02:30 15.5 °C 2 °C 1009 hPa SSW 7.9 km/h 9.7 km/h 40% 0 mm 0.0 W/m2
02:35 15.5 °C 2.3 °C 1008.7 hPa SSW 9.7 km/h 11.3 km/h 41% 0 mm 0.0 W/m2
02:45 15.6 °C 2.7 °C 1008.7 hPa SSW 13 km/h 17.7 km/h 42% 0 mm 0.0 W/m2
02:50 15.6 °C 2.7 °C 1009 hPa SSW 14.3 km/h 16.1 km/h 42% 0 mm 0.0 W/m2
02:55 15.6 °C 2.7 °C 1008.7 hPa SSW 7.9 km/h 14.5 km/h 42% 0 mm 0.0 W/m2
03:00 15.5 °C 2.6 °C 1008.7 hPa SSW 6.4 km/h 12.9 km/h 42% 0 mm 0.0 W/m2
03:05 15.4 °C 2.5 °C 1009 hPa SSW 11.1 km/h 11.3 km/h 42% 0 mm 0.0 W/m2
03:10 15.4 °C 2.2 °C 1008.7 hPa SSW 11.1 km/h 12.9 km/h 41% 0 mm 0.0 W/m2
03:15 15.4 °C 2.2 °C 1008.7 hPa SSW 9.7 km/h 11.3 km/h 41% 0 mm 0.0 W/m2
03:20 15.4 °C 2.2 °C 1008.4 hPa SSW 9.7 km/h 11.3 km/h 41% 0 mm 0.0 W/m2
03:25 15.3 °C 2.1 °C 1008.7 hPa SSW 6.4 km/h 9.7 km/h 41% 0 mm 0.0 W/m2
03:30 15.3 °C 1.8 °C 1008.7 hPa SSW 6.4 km/h 11.3 km/h 40% 0 mm 0.0 W/m2
03:40 15.3 °C 1.8 °C 1008.7 hPa SSW 9.7 km/h 11.3 km/h 40% 0 mm 0.0 W/m2
03:45 15.2 °C 1.7 °C 1008.7 hPa SSW 7.9 km/h 14.5 km/h 40% 0 mm 0.0 W/m2
03:55 15.2 °C 1.3 °C 1008.7 hPa SSW 13 km/h 14.5 km/h 39% 0 mm 0.0 W/m2
04:00 15.2 °C 1.3 °C 1008.7 hPa SSW 13 km/h 16.1 km/h 39% 0 mm 0.0 W/m2
04:05 15.2 °C 1.3 °C 1008.4 hPa SSW 16.3 km/h 17.7 km/h 39% 0 mm 0.0 W/m2
04:10 15.2 °C 1.3 °C 1009 hPa South 11.1 km/h 17.7 km/h 39% 0 mm 0.0 W/m2
04:20 15.1 °C 1.2 °C 1009 hPa SSW 14.3 km/h 20.9 km/h 39% 0 mm 0.0 W/m2
04:30 14.8 °C 1.3 °C 1009.4 hPa SSW 17.7 km/h 24.1 km/h 40% 0 mm 0.0 W/m2
04:40 14.5 °C 1.4 °C 1008.4 hPa SSW 16.3 km/h 19.3 km/h 41% 0 mm 0.0 W/m2
04:51 14.2 °C 1.5 °C 1009 hPa SSW 19.5 km/h 19.5 km/h 42% 0 mm 0.0 W/m2
05:00 14.1 °C 1.7 °C 1010 hPa SSW 17.7 km/h 17.7 km/h 43% 0 mm 0.0 W/m2
05:05 13.9 °C 1.8 °C 1009.7 hPa SSW 19.5 km/h 22.5 km/h 44% 0 mm 0.0 W/m2
05:26 13.7 °C 2 °C 1009 hPa SSW 7.9 km/h 11.3 km/h 45% 0 mm 0.0 W/m2
05:31 13.7 °C 2 °C 1009 hPa SSW 16.3 km/h 16.3 km/h 45% 0 mm 0.0 W/m2
05:36 13.7 °C 2.3 °C 1008.7 hPa SSW 7.9 km/h 17.7 km/h 46% 0 mm 0.0 W/m2
05:41 13.7 °C 2.6 °C 1008.4 hPa SSW 4.7 km/h 9.7 km/h 47% 0 mm 0.0 W/m2
05:46 13.7 °C 2.6 °C 1009 hPa SSW 1.4 km/h 8 km/h 47% 0 mm 0.0 W/m2
05:53 13.7 °C 2.6 °C 1009.7 hPa SSW 9.7 km/h 11.3 km/h 47% 0 mm 0.0 W/m2
05:59 13.7 °C 2.6 °C 1009 hPa SSW 9.7 km/h 11.3 km/h 47% 0 mm 0.0 W/m2
06:10 13.6 °C 2.5 °C 1009 hPa SSW 9.7 km/h 11.3 km/h 47% 0 mm 0.0 W/m2
06:31 13.5 °C 3.3 °C 1009.7 hPa SW 9.7 km/h 12.9 km/h 50% 0 mm 0.0 W/m2
06:46 13.2 °C 3.8 °C 1010 hPa SW 11.1 km/h 14.5 km/h 53% 0 mm 0.0 W/m2
07:17 13.6 °C 3.1 °C 1012.1 hPa SSW 6.4 km/h 11.3 km/h 49% 0 mm 16.0 W/m2
07:33 13.7 °C 3.2 °C 1012.4 hPa SSW 7.9 km/h 16.1 km/h 49% 0 mm 18.0 W/m2
07:45 13.4 °C 3.5 °C 1011.4 hPa SSW 9.7 km/h 12.9 km/h 51% 0 mm 46.0 W/m2
07:54 13.6 °C 3.4 °C 1011.4 hPa SSW 16.3 km/h 19.3 km/h 50% 0 mm 86.0 W/m2
08:03 13.6 °C 3.7 °C 1011.7 hPa SSW 16.3 km/h 19.3 km/h 51% 0 mm 69.0 W/m2
08:08 13.5 °C 3.6 °C 1011.4 hPa SSW 20.9 km/h 22.5 km/h 51% 0 mm 86.0 W/m2
08:13 13.5 °C 3.8 °C 1011.7 hPa South 17.7 km/h 20.9 km/h 52% 0 mm 105.0 W/m2
08:23 13.4 °C 4 °C 1011.7 hPa South 11.1 km/h 17.7 km/h 53% 0 mm 125.0 W/m2
08:58 13.6 °C 4.7 °C 1012.8 hPa SSW 19.5 km/h 22.5 km/h 55% 0 mm 167.0 W/m2
09:21 13.4 °C 5.1 °C 1013.1 hPa SSW 19.5 km/h 22.5 km/h 57% 0 mm 243.0 W/m2
09:33 13.8 °C 5.2 °C 1013.4 hPa SSW 11.1 km/h 22.5 km/h 56% 0 mm 422.0 W/m2
09:56 14.2 °C 5 °C 1013.8 hPa SSW 16.3 km/h 19.3 km/h 54% 0 mm 599.0 W/m2
10:08 14.7 °C 5.2 °C 1013.8 hPa SSW 11.1 km/h 19.3 km/h 53% 0 mm 624.0 W/m2
11:04 17.3 °C 3.6 °C 1013.4 hPa South 19.5 km/h 27.4 km/h 40% 0 mm 738.0 W/m2
11:17 17.9 °C 2.2 °C 1013.8 hPa South 19.5 km/h 27.4 km/h 35% 0 mm 768.0 W/m2
11:28 17.9 °C 2.2 °C 1013.4 hPa South 17.7 km/h 24.1 km/h 35% 0 mm 791.0 W/m2
11:36 18.3 °C 3 °C 1013.4 hPa SSW 20.9 km/h 22.5 km/h 36% 0 mm 817.0 W/m2
11:45 18.6 °C 2.8 °C 1013.4 hPa SSW 16.3 km/h 24.1 km/h 35% 0 mm 830.0 W/m2
12:05 18.9 °C 3.5 °C 1013.4 hPa South 16.3 km/h 20.9 km/h 36% 0 mm 846.0 W/m2
13:24 20.4 °C 2.7 °C 1012.4 hPa SSW 22.7 km/h 30.6 km/h 31% 0 mm 842.0 W/m2
13:39 20.8 °C 2.6 °C 1012.1 hPa SW 24.1 km/h 27.4 km/h 30% 0 mm 840.0 W/m2
14:54 21.1 °C 3.3 °C 1011.4 hPa South 24.1 km/h 30.6 km/h 31% 0 mm 710.0 W/m2
15:09 21.3 °C 3 °C 1011.4 hPa SSW 25.9 km/h 35.4 km/h 30% 0 mm 670.0 W/m2
15:54 21 °C 2.3 °C 1011.4 hPa SSW 28.8 km/h 43.5 km/h 29% 0 mm 550.0 W/m2
16:42 20.6 °C 2.9 °C 1011.7 hPa SSW 28.8 km/h 32.2 km/h 31% 0 mm 408.0 W/m2
17:00 20.1 °C 2.9 °C 1011.7 hPa SSW 19.5 km/h 37 km/h 32% 0 mm 336.0 W/m2
17:32 19.5 °C 2.8 °C 1012.1 hPa SSW 20.9 km/h 29 km/h 33% 0 mm 214.0 W/m2
17:41 19.4 °C 2.3 °C 1012.1 hPa SSW 27.4 km/h 32.2 km/h 32% 0 mm 172.0 W/m2
17:59 18.9 °C 1.8 °C 1012.1 hPa SSW 19.5 km/h 33.8 km/h 32% 0 mm 111.0 W/m2
18:13 18.6 °C 2.4 °C 1012.4 hPa South 25.9 km/h 32.2 km/h 34% 0 mm 62.0 W/m2
18:23 18.3 °C 3 °C 1012.4 hPa SSW 20.9 km/h 35.4 km/h 36% 0 mm 32.0 W/m2
18:49 17.6 °C 3.5 °C 1012.8 hPa SSW 25.9 km/h 29 km/h 39% 0 mm 5.0 W/m2
19:17 16.8 °C 4.5 °C 1013.1 hPa SSW 17.7 km/h 27.4 km/h 44% 0 mm 0.0 W/m2
19:45 15.8 °C 4.8 °C 1013.4 hPa SSW 19.5 km/h 29 km/h 48% 0 mm 0.0 W/m2
20:15 15.3 °C 5.5 °C 1013.8 hPa SW 30.6 km/h 30.6 km/h 52% 0 mm 0.0 W/m2
20:40 13.9 °C 6 °C 1014.4 hPa South 19.5 km/h 30.6 km/h 59% 0 mm 0.0 W/m2
20:56 13.2 °C 6.1 °C 1014.8 hPa SSE 22.7 km/h 24.1 km/h 62% 0 mm 0.0 W/m2
21:40 11.9 °C 6.4 °C 1015.1 hPa South 28.8 km/h 37 km/h 69% 0 mm 0.0 W/m2
21:55 11.6 °C 6.3 °C 1015.5 hPa South 30.6 km/h 32.2 km/h 70% 0 mm 0.0 W/m2
22:03 11.6 °C 6.3 °C 1015.5 hPa South 19.5 km/h 27.4 km/h 70% 0 mm 0.0 W/m2
22:10 11.4 °C 6.3 °C 1015.8 hPa South 13 km/h 24.1 km/h 71% 0 mm 0.0 W/m2
22:16 11.4 °C 6.3 °C 1015.8 hPa SSE 20.9 km/h 33.8 km/h 71% 0 mm 0.0 W/m2
22:25 11.4 °C 6.1 °C 1016.1 hPa SSE 17.7 km/h 29 km/h 70% 0 mm 0.0 W/m2
22:30 11.5 °C 6.2 °C 1016.1 hPa South 25.9 km/h 32.2 km/h 70% 0 mm 0.0 W/m2
22:35 11.5 °C 6.2 °C 1016.1 hPa SSW 22.7 km/h 30.6 km/h 70% 0 mm 0.0 W/m2
22:41 11.4 °C 6.1 °C 1016.5 hPa South 28.8 km/h 32.2 km/h 70% 0 mm 0.0 W/m2
22:50 11.4 °C 6.1 °C 1016.5 hPa South 19.5 km/h 32.2 km/h 70% 0 mm 0.0 W/m2
22:56 11.4 °C 6.3 °C 1016.8 hPa South 17.7 km/h 27.4 km/h 71% 0 mm 0.0 W/m2
23:02 11.3 °C 6.4 °C 1016.8 hPa SSE 27.4 km/h 32.2 km/h 72% 0 mm 0.0 W/m2
23:11 11.2 °C 6.5 °C 1016.8 hPa SSE 17.7 km/h 27.4 km/h 73% 0 mm 0.0 W/m2
23:21 11.1 °C 6.6 °C 1016.8 hPa SSE 17.7 km/h 27.4 km/h 74% 0 mm 0.0 W/m2
23:31 10.8 °C 6.4 °C 1016.5 hPa South 19.5 km/h 25.7 km/h 74% 0 mm 0.0 W/m2
23:46 10.8 °C 6.2 °C 1016.5 hPa South 22.7 km/h 25.7 km/h 73% 0 mm 0.0 W/m2
23:51 10.7 °C 5.9 °C 1016.5 hPa SSE 17.7 km/h 25.7 km/h 72% 0 mm 0.0 W/m2
23:56 10.7 °C 5.9 °C 1016.5 hPa SSE 22.7 km/h 29 km/h 72% 0 mm 0.0 W/m2
Canyon Roadhouse, Fishriver Canyon, Namibia
Compliments of Weather Underground - 2.25 mb